Login: 
Passwort: 
Neuanmeldung 
Passwort vergessen



Das neue Heft erscheint am 1. Dezember
Streichung von IFR-Verfahren: Bürokratie in Höchstform
Lizenz-Rückkehr nach UK - die letzte Chance!
Typenbetrachtung, Kauf und Ferry DR400
Simulatortraining in der Grundausbildung
Cyber-Attacke auf Jeppesen
Von der Notlandeübung zur Notlage
Engagierter Journalismus aus Sicht des eigenen Cockpits
Engagierter Journalismus aus Sicht des eigenen Cockpits
Sortieren nach:  Datum - neue zuerst |  Datum - alte zuerst |  Bewertung

Unfälle und Zwischenfälle | "Zwischenfall" auf Autobahnbrücke  
4. Dezember 2021: Von Frank Schmitz 

Spannender Unfall, zum Glück wohl ohne großen Personenschaden ausgegangen:

https://www.swr.de/swraktuell/rheinland-pfalz/kaiserslautern/lkw-kracht-in-flugzeug-100.html

https://aviation-safety.net/wikibase/270202

Wetter schaut auch nicht so prickelnd aus...

4. Dezember 2021: Von Nicolas Nickisch an Frank Schmitz Bewertung: +1.00 [1]

Überraschend. Ich habe heute den ganzen Tag kaum meine Garageneinfahrt gefunden. Und andere Leute wollen von Frankreich nach Niedersachsen wenn ich das richtig gelesen habe.

4. Dezember 2021: Von Joachim P. an Nicolas Nickisch Bewertung: +1.00 [1]
Wir hatten ja im anderen Thread schon festgehalten, dass die Teilnehmer hier verschiedene Minimas haben.
Ohne nähere Infos zum Fall vorerst nicht verwundert seiend
Joachim
4. Dezember 2021: Von Tobias Schnell an Joachim P.

Wow... Nicht wahr, oder? Nächste METARs vom Unfallzeitpunkt:

Saarbrücken, ca 20 NM südwestlich:

METAR EDDR 041150Z 21013KT 6000 -RADZ OVC004 07/07 Q0995 TEMPO 4000=

METAR EDDR 041120Z 22013KT 4000 -RADZ OVC003 07/07 Q0995 TEMPO 2500=

METAR EDDR 041050Z 22015KT 4000 -RADZ OVC003 07/07 Q0996 TEMPO 2500=



Ramstein, ca. 8 NM nördlich:

SPECI ETAR 041126Z 00000KT 2400 -DZ BR OVC003 04/04 A2940 RMK AO2A SLP968 $=

METAR ETAR 041056Z 00000KT 3200 -DZ BR OVC003 04/04 A2942 RMK AO2A RAE54DZB54 SLP975 P0004 T00360036 $=

SPECI ETAR 041042Z 00000KT 3200 -RA BR OVC003 03/03 A2943 RMK AO2A SLP978 $=

4. Dezember 2021: Von Flieger Max L.oitfelder an Frank Schmitz
Das Flugzeug dürfte ja über 40 Jahre alt sein, kann die Schadenshöhe "mehr als 60.000.-" da überhaupt stimmen?
4. Dezember 2021: Von Thomas R. an Flieger Max L.oitfelder

Der LKW ist ja auch kaputt...

4. Dezember 2021: Von Oliver Bucher an Flieger Max L.oitfelder

Hallo,

ich denke schon. Flieger + LKW. Dabei dürften schon so 60T€ rauskommen.

Gruß Oliver

5. Dezember 2021: Von airworx Aviation an Tobias Schnell

Jou.. diesmal war es eigentlich klar.. .wobei man am Pfälzer Wald durchaus schon mal hängen bleiben kann auch wenn es drum herum einigermaßen gute Werte gibt.


8 Beiträge Seite 1 von 1

 

Home
Impressum
© 2004-2022 Airwork Press GmbH. Alle Rechte vorbehalten. Vervielfältigung nur mit Genehmigung der Airwork Press GmbH. Die Nutzung des Pilot und Flugzeug Internet-Forums unterliegt den allgemeinen Nutzungsbedingungen (hier). Es gelten unsere Datenschutzerklärung unsere Allgemeinen Geschäftsbedingungen (hier). Kartendaten: © OpenStreetMap-Mitwirkende, SRTM | Kartendarstellung: © OpenTopoMap (CC-BY-SA) Hub Version 14.13.03
Zur mobilen Ansicht wechseln
Seitenanfang